createdAt,value
2022-09-05T00:00:02.894Z,6.60
2022-09-05T00:01:35.622Z,7.15
2022-09-05T00:03:14.150Z,6.80
2022-09-05T00:04:38.987Z,6.63
2022-09-05T00:06:01.950Z,7.35
2022-09-05T00:07:31.242Z,6.90
2022-09-05T00:09:06.203Z,6.63
2022-09-05T00:10:57.656Z,6.35
2022-09-05T00:12:04.243Z,5.78
2022-09-05T00:13:15.997Z,5.63
2022-09-05T00:14:17.906Z,5.88
2022-09-05T00:15:50.588Z,5.60
2022-09-05T00:17:10.319Z,5.82
2022-09-05T00:22:14.433Z,5.70
2022-09-05T00:24:19.723Z,5.60
2022-09-05T00:24:24.987Z,5.38
2022-09-05T00:24:27.749Z,5.97
2022-09-05T00:25:30.570Z,5.22
2022-09-05T00:26:50.000Z,5.63
2022-09-05T00:28:25.855Z,6.07
2022-09-05T00:30:43.922Z,6.80
2022-09-05T00:31:53.910Z,6.25
2022-09-05T00:32:42.068Z,6.65
2022-09-05T00:34:05.979Z,6.50
2022-09-05T00:35:28.965Z,6.53
2022-09-05T00:36:47.932Z,6.55
2022-09-05T00:37:51.375Z,6.85
2022-09-05T00:39:00.667Z,6.30
2022-09-05T00:40:30.322Z,5.53
2022-09-05T00:41:34.386Z,6.30
2022-09-05T00:42:36.297Z,5.68
2022-09-05T00:43:42.696Z,6.43
2022-09-05T00:44:57.704Z,6.82
2022-09-05T00:46:01.481Z,6.25
2022-09-05T00:47:47.871Z,6.38
2022-09-05T00:49:10.780Z,6.25
2022-09-05T00:50:25.870Z,7.45
2022-09-05T00:51:35.254Z,7.18
2022-09-05T00:53:07.396Z,7.38
2022-09-05T00:54:45.838Z,7.72
2022-09-05T00:56:04.376Z,7.43
2022-09-05T00:57:43.086Z,7.95
2022-09-05T00:58:52.067Z,7.72
2022-09-05T01:00:17.078Z,7.95
2022-09-05T01:01:27.634Z,7.72
2022-09-05T01:02:51.754Z,7.78
2022-09-05T01:04:19.789Z,7.88
2022-09-05T01:05:52.019Z,7.30
2022-09-05T01:07:32.584Z,7.95
2022-09-05T01:09:07.975Z,7.35
2022-09-05T01:10:43.857Z,6.95
2022-09-05T01:12:05.007Z,7.35
2022-09-05T01:13:44.321Z,6.75
2022-09-05T01:15:10.754Z,7.72
2022-09-05T01:16:36.044Z,6.95
2022-09-05T01:18:18.819Z,6.10
2022-09-05T01:19:42.126Z,6.80
2022-09-05T01:20:59.910Z,7.05
2022-09-05T01:22:45.762Z,6.90
2022-09-05T01:23:56.494Z,6.95
2022-09-05T01:25:19.392Z,6.65
2022-09-05T01:26:20.933Z,6.82
2022-09-05T01:29:12.938Z,6.63
2022-09-05T01:29:15.663Z,6.47
2022-09-05T01:31:03.983Z,7.10
2022-09-05T01:32:43.793Z,7.97
2022-09-05T01:33:50.964Z,8.55
2022-09-05T01:35:41.439Z,7.90
2022-09-05T01:37:33.167Z,7.93
2022-09-05T01:40:04.366Z,8.77
2022-09-05T01:40:51.560Z,9.15
2022-09-05T01:42:07.219Z,8.85
2022-09-05T01:43:27.896Z,9.80
2022-09-05T01:44:49.774Z,9.00
2022-09-05T01:45:52.845Z,8.95
2022-09-05T01:47:29.647Z,9.65
2022-09-05T01:48:58.361Z,9.48
2022-09-05T01:50:35.494Z,9.77
2022-09-05T01:51:55.558Z,11.02
2022-09-05T01:53:25.492Z,11.20
2022-09-05T01:54:51.494Z,11.13
2022-09-05T01:56:30.001Z,10.93
2022-09-05T01:57:56.065Z,11.18
2022-09-05T01:59:23.757Z,11.73
2022-09-05T02:00:38.292Z,11.88
2022-09-05T02:01:54.871Z,10.70
2022-09-05T02:03:21.983Z,11.40
2022-09-05T02:04:45.591Z,10.77
2022-09-05T02:06:09.840Z,10.65
2022-09-05T02:07:39.201Z,10.90
2022-09-05T02:09:02.568Z,10.88
2022-09-05T02:10:32.973Z,11.27
2022-09-05T02:11:41.459Z,11.45
2022-09-05T02:13:02.934Z,11.00
2022-09-05T02:14:28.588Z,11.02
2022-09-05T02:15:59.343Z,11.45
2022-09-05T02:17:47.993Z,12.45
2022-09-05T02:18:58.859Z,11.77
2022-09-05T02:20:35.061Z,12.68
2022-09-05T02:21:57.505Z,12.00
2022-09-05T02:23:37.593Z,12.32
2022-09-05T02:25:00.285Z,11.88
2022-09-05T02:26:26.159Z,12.85
2022-09-05T02:28:04.942Z,12.40
2022-09-05T02:29:34.711Z,13.13
2022-09-05T02:30:48.503Z,11.73
2022-09-05T02:32:29.677Z,11.65
2022-09-05T02:33:37.967Z,12.32
2022-09-05T02:35:05.388Z,12.10
2022-09-05T02:36:07.387Z,12.40
2022-09-05T02:37:33.777Z,12.57
2022-09-05T02:45:00.129Z,12.50
2022-09-05T02:45:02.438Z,13.65
2022-09-05T02:45:05.949Z,12.77
2022-09-05T02:45:06.741Z,13.35
2022-09-05T02:45:23.872Z,12.90
2022-09-05T02:46:47.870Z,14.57
2022-09-05T02:48:12.713Z,13.43
2022-09-05T02:53:13.877Z,14.50
2022-09-05T02:57:25.225Z,13.75
2022-09-05T02:57:30.442Z,14.43
2022-09-05T02:57:37.624Z,15.10
2022-09-05T02:57:40.445Z,15.70
2022-09-05T02:58:05.926Z,14.37
2022-09-05T02:59:36.132Z,14.48
2022-09-05T03:00:44.708Z,15.70
2022-09-05T03:02:25.095Z,15.45
2022-09-05T03:03:59.894Z,15.23
2022-09-05T03:05:07.643Z,14.82
2022-09-05T03:06:34.356Z,14.65
2022-09-05T03:08:07.236Z,15.60
2022-09-05T03:09:55.382Z,14.93
2022-09-05T03:11:21.563Z,14.73
2022-09-05T03:12:53.519Z,15.40
2022-09-05T03:14:44.278Z,15.60
2022-09-05T03:16:07.203Z,16.02
2022-09-05T03:17:26.697Z,15.10
2022-09-05T03:18:46.502Z,14.88
2022-09-05T03:20:26.338Z,15.85
2022-09-05T03:21:44.431Z,15.55
2022-09-05T03:22:58.061Z,17.65
2022-09-05T03:24:22.805Z,15.93
2022-09-05T03:25:39.309Z,15.68
2022-09-05T03:27:27.759Z,17.25
2022-09-05T03:28:59.656Z,17.30
2022-09-05T03:30:20.399Z,16.13
2022-09-05T03:31:35.916Z,17.45
2022-09-05T03:33:14.923Z,18.27
2022-09-05T03:34:16.425Z,17.58
2022-09-05T03:35:36.336Z,17.92
2022-09-05T03:36:40.913Z,16.90
2022-09-05T03:38:27.212Z,17.60
2022-09-05T03:40:16.336Z,17.25
2022-09-05T03:41:25.257Z,17.67
2022-09-05T03:43:02.948Z,18.08
2022-09-05T03:44:23.027Z,18.58
2022-09-05T03:45:42.570Z,17.85
2022-09-05T03:46:48.952Z,17.85
2022-09-05T03:48:18.687Z,20.02
2022-09-05T03:49:38.922Z,18.73
2022-09-05T03:57:10.629Z,18.50
2022-09-05T03:57:10.927Z,19.58
2022-09-05T03:57:11.566Z,17.88
2022-09-05T03:57:12.690Z,17.83
2022-09-05T03:58:16.902Z,18.02
2022-09-05T03:59:31.704Z,18.40
2022-09-05T04:00:38.043Z,19.30
2022-09-05T04:05:31.048Z,19.27
2022-09-05T04:08:13.521Z,18.67
2022-09-05T04:08:18.539Z,17.58
2022-09-05T04:08:20.475Z,18.75
2022-09-05T04:08:41.262Z,16.52
2022-09-05T04:09:51.672Z,18.42
2022-09-05T04:11:10.072Z,17.98
2022-09-05T04:12:18.790Z,18.90
2022-09-05T04:13:37.649Z,18.10
2022-09-05T04:14:55.649Z,16.05
2022-09-05T04:16:09.447Z,16.02
2022-09-05T04:17:19.156Z,16.77
2022-09-05T04:18:32.646Z,17.80
2022-09-05T04:19:43.469Z,17.15
2022-09-05T04:21:01.863Z,16.85
2022-09-05T04:22:22.923Z,17.35
2022-09-05T04:23:46.182Z,17.17
2022-09-05T04:25:08.492Z,18.33
2022-09-05T04:26:38.934Z,17.75
2022-09-05T04:27:47.864Z,17.17
2022-09-05T04:29:28.811Z,18.13
2022-09-05T04:30:45.388Z,17.20
2022-09-05T04:32:18.204Z,16.73
2022-09-05T04:33:59.622Z,16.08
2022-09-05T04:35:25.735Z,17.23
2022-09-05T04:36:33.111Z,16.35
2022-09-05T04:37:47.832Z,17.73
2022-09-05T04:39:23.396Z,17.35
2022-09-05T04:40:44.746Z,18.48
2022-09-05T04:42:02.824Z,18.45
2022-09-05T04:43:28.697Z,17.35
2022-09-05T04:44:40.911Z,17.40
2022-09-05T04:45:53.704Z,17.25
2022-09-05T04:46:59.324Z,18.23
2022-09-05T04:48:04.646Z,18.17
2022-09-05T04:49:11.122Z,17.60
2022-09-05T04:50:23.635Z,17.57
2022-09-05T04:52:00.672Z,19.27
2022-09-05T04:53:36.692Z,18.35
2022-09-05T04:54:53.209Z,17.00
2022-09-05T04:55:58.045Z,19.00
2022-09-05T04:57:13.816Z,17.38
2022-09-05T04:59:55.277Z,17.90
2022-09-05T05:04:29.531Z,17.23
2022-09-05T05:06:04.551Z,16.48
2022-09-05T05:06:10.498Z,17.53
2022-09-05T05:06:10.847Z,16.92
2022-09-05T05:06:13.728Z,15.88
2022-09-05T05:07:26.449Z,16.63
2022-09-05T05:08:49.017Z,16.88
2022-09-05T05:10:08.937Z,16.63
2022-09-05T05:17:38.451Z,14.65
2022-09-05T05:18:03.138Z,14.63
2022-09-05T05:18:06.550Z,14.50
2022-09-05T05:18:07.041Z,15.32
2022-09-05T05:18:49.092Z,15.75
2022-09-05T05:20:41.572Z,16.13
2022-09-05T05:21:50.928Z,14.93
2022-09-05T05:23:15.075Z,14.90
2022-09-05T05:24:24.051Z,16.17
2022-09-05T05:25:27.395Z,15.55
2022-09-05T05:26:47.305Z,15.05
2022-09-05T05:28:24.969Z,15.93
2022-09-05T05:29:43.524Z,15.18
2022-09-05T05:30:45.317Z,15.85
2022-09-05T05:31:56.046Z,15.52
2022-09-05T05:33:00.497Z,15.73
2022-09-05T05:34:10.954Z,15.18
2022-09-05T05:35:33.451Z,14.38
2022-09-05T05:37:06.217Z,15.32
2022-09-05T05:38:40.207Z,14.77
2022-09-05T05:39:48.197Z,15.50
2022-09-05T05:41:01.940Z,15.00
2022-09-05T05:42:20.783Z,14.80
2022-09-05T05:43:29.614Z,14.90
2022-09-05T05:44:38.754Z,15.05
2022-09-05T05:45:40.732Z,14.73
2022-09-05T05:46:47.601Z,15.07
2022-09-05T05:47:56.533Z,14.60
2022-09-05T05:49:27.372Z,14.65
2022-09-05T05:50:43.895Z,14.85
2022-09-05T05:52:04.374Z,15.00
2022-09-05T05:53:05.942Z,15.10
2022-09-05T05:54:24.839Z,15.10
2022-09-05T05:55:51.207Z,15.38
2022-09-05T05:57:23.705Z,15.02
2022-09-05T05:58:43.991Z,14.32
2022-09-05T05:59:57.680Z,15.30
2022-09-05T06:01:28.854Z,14.93
2022-09-05T06:03:26.417Z,14.35
2022-09-05T06:04:24.148Z,14.57
2022-09-05T06:05:47.339Z,14.10
2022-09-05T06:07:26.851Z,13.70
2022-09-05T06:12:54.897Z,13.18
2022-09-05T06:14:21.951Z,14.00
2022-09-05T06:15:01.764Z,13.02
2022-09-05T06:15:02.949Z,12.95
2022-09-05T06:15:57.759Z,13.57
2022-09-05T06:17:28.020Z,13.98
2022-09-05T06:18:42.553Z,13.32
2022-09-05T06:22:07.119Z,13.73
2022-09-05T06:22:17.997Z,14.20
2022-09-05T06:23:47.118Z,13.48
2022-09-05T06:25:16.990Z,13.32
2022-09-05T06:26:32.982Z,13.35
2022-09-05T06:28:08.753Z,12.88
2022-09-05T06:29:46.942Z,14.27
2022-09-05T06:31:31.406Z,14.02
2022-09-05T06:33:10.795Z,13.90
2022-09-05T06:34:39.653Z,13.55
2022-09-05T06:35:59.076Z,13.90
2022-09-05T06:37:43.245Z,14.07
2022-09-05T06:39:02.869Z,13.32
2022-09-05T06:40:33.087Z,14.93
2022-09-05T06:41:40.630Z,13.50
2022-09-05T06:43:00.077Z,13.52
2022-09-05T06:44:26.369Z,13.98
2022-09-05T06:45:37.592Z,13.55
2022-09-05T06:47:22.533Z,14.00
2022-09-05T06:48:44.729Z,14.77
2022-09-05T06:50:27.269Z,13.57
2022-09-05T06:51:37.774Z,14.32
2022-09-05T06:52:55.680Z,14.23
2022-09-05T06:54:34.076Z,14.45
2022-09-05T06:55:50.339Z,13.30
2022-09-05T06:57:20.043Z,12.90
2022-09-05T06:58:49.720Z,13.25
2022-09-05T07:00:21.727Z,14.15
2022-09-05T07:01:59.675Z,12.60
2022-09-05T07:03:09.606Z,12.95
2022-09-05T07:05:37.585Z,13.80
2022-09-05T07:06:48.103Z,14.25
2022-09-05T07:08:26.709Z,14.23
2022-09-05T07:09:41.394Z,13.98
2022-09-05T07:11:19.667Z,13.88
2022-09-05T07:12:39.869Z,13.93
2022-09-05T07:13:55.285Z,14.35
2022-09-05T07:14:57.265Z,15.70
2022-09-05T07:16:37.220Z,16.58
2022-09-05T07:18:09.665Z,15.18
2022-09-05T07:19:27.102Z,15.75
2022-09-05T07:21:17.948Z,14.50
2022-09-05T07:22:45.989Z,15.30
2022-09-05T07:24:09.457Z,14.32
2022-09-05T07:25:18.754Z,14.95
2022-09-05T07:26:51.774Z,14.50
2022-09-05T07:28:26.236Z,13.73
2022-09-05T07:29:32.176Z,15.63
2022-09-05T07:30:35.123Z,13.65
2022-09-05T07:31:38.889Z,14.63
2022-09-05T07:32:46.171Z,15.70
2022-09-05T07:33:51.562Z,14.07
2022-09-05T07:34:54.098Z,14.50
2022-09-05T07:36:11.657Z,14.70
2022-09-05T07:37:13.962Z,15.07
2022-09-05T07:38:22.699Z,14.43
2022-09-05T07:39:36.525Z,14.35
2022-09-05T07:41:00.719Z,14.70
2022-09-05T07:42:07.816Z,14.32
2022-09-05T07:43:36.271Z,14.00
2022-09-05T07:44:44.374Z,14.80
2022-09-05T07:46:11.499Z,14.00
2022-09-05T07:47:35.515Z,15.20
2022-09-05T07:48:48.215Z,14.48
2022-09-05T07:52:39.357Z,13.13
2022-09-05T07:56:50.493Z,11.65
2022-09-05T07:56:55.051Z,12.02
2022-09-05T07:56:55.219Z,12.23
2022-09-05T07:57:01.708Z,12.02
2022-09-05T07:57:29.994Z,11.65
2022-09-05T07:58:41.340Z,10.60
2022-09-05T07:59:47.082Z,11.50
2022-09-05T08:00:54.908Z,12.82
2022-09-05T08:01:57.123Z,12.18
2022-09-05T08:03:08.740Z,12.73
2022-09-05T08:04:23.307Z,13.20
2022-09-05T08:05:35.742Z,13.35
2022-09-05T08:07:48.227Z,12.88
2022-09-05T08:08:08.539Z,12.88
2022-09-05T08:09:45.518Z,12.68
2022-09-05T08:11:22.261Z,13.95
2022-09-05T08:13:22.518Z,13.43
2022-09-05T08:14:44.315Z,14.57
2022-09-05T08:16:00.727Z,12.02
2022-09-05T08:17:00.000Z,12.40
2022-09-05T08:18:12.154Z,11.73
2022-09-05T08:19:39.507Z,12.95
2022-09-05T08:20:43.529Z,12.25
2022-09-05T08:21:49.910Z,11.85
2022-09-05T08:23:29.898Z,11.90
2022-09-05T08:24:37.435Z,8.60
2022-09-05T08:26:05.894Z,9.07
2022-09-05T08:27:17.607Z,7.95
2022-09-05T08:28:40.524Z,8.05
2022-09-05T08:29:46.137Z,8.25
2022-09-05T08:30:59.968Z,7.93
2022-09-05T08:32:08.367Z,8.18
2022-09-05T08:33:23.215Z,7.20
2022-09-05T08:34:45.477Z,7.38
2022-09-05T08:36:00.846Z,7.95
2022-09-05T08:37:03.436Z,7.68
2022-09-05T08:38:07.375Z,7.80
2022-09-05T08:39:11.700Z,7.75
2022-09-05T08:40:25.943Z,7.68
2022-09-05T08:41:50.175Z,8.15
2022-09-05T08:45:29.033Z,6.88
2022-09-05T08:46:39.461Z,7.07
2022-09-05T08:46:39.789Z,7.80
2022-09-05T08:48:20.725Z,7.07
2022-09-05T08:49:37.023Z,6.55
2022-09-05T08:51:01.107Z,6.40
2022-09-05T08:52:25.216Z,6.75
2022-09-05T08:53:46.555Z,6.25
2022-09-05T08:55:04.296Z,6.13
2022-09-05T08:56:21.324Z,6.65
2022-09-05T08:57:43.952Z,6.20
2022-09-05T08:59:27.823Z,6.43
2022-09-05T09:00:44.493Z,6.38
2022-09-05T09:02:45.418Z,6.57
2022-09-05T09:03:54.517Z,6.00
2022-09-05T09:05:14.222Z,5.88
2022-09-05T09:06:29.092Z,6.15
2022-09-05T09:07:58.565Z,5.68
2022-09-05T09:09:23.410Z,6.43
2022-09-05T09:10:25.844Z,5.35
2022-09-05T09:11:50.739Z,5.50
2022-09-05T09:13:24.853Z,5.45
2022-09-05T09:14:32.413Z,5.18
2022-09-05T09:16:01.037Z,5.78
2022-09-05T09:17:26.952Z,5.65
2022-09-05T09:18:44.402Z,5.53
2022-09-05T09:19:52.813Z,5.00
2022-09-05T09:20:59.432Z,5.00
2022-09-05T09:22:18.074Z,5.25
2022-09-05T09:23:32.680Z,6.32
2022-09-05T09:24:44.327Z,5.70
2022-09-05T09:26:16.981Z,5.82
2022-09-05T09:28:21.217Z,6.40
2022-09-05T09:29:02.373Z,5.90
2022-09-05T09:30:06.500Z,5.47
2022-09-05T09:31:32.870Z,5.60
2022-09-05T09:32:49.359Z,5.65
2022-09-05T09:33:54.054Z,5.68
2022-09-05T09:35:07.860Z,5.68
2022-09-05T09:36:40.860Z,5.25
2022-09-05T09:38:00.610Z,5.70
2022-09-05T09:39:08.133Z,5.55
2022-09-05T09:40:36.101Z,5.70
2022-09-05T09:41:37.657Z,5.68
2022-09-05T09:43:21.731Z,6.07
2022-09-05T09:45:27.889Z,6.22
2022-09-05T09:46:46.490Z,6.20
2022-09-05T09:48:17.171Z,6.00
2022-09-05T09:49:34.121Z,5.90
2022-09-05T09:51:06.741Z,5.65
2022-09-05T09:52:38.588Z,6.38
2022-09-05T09:53:59.297Z,6.15
2022-09-05T09:55:40.869Z,6.38
2022-09-05T09:57:06.927Z,5.70
2022-09-05T09:58:30.053Z,5.70
2022-09-05T09:59:54.729Z,5.35
2022-09-05T10:01:22.882Z,6.05
2022-09-05T10:04:30.975Z,6.47
2022-09-05T10:10:35.430Z,5.35
2022-09-05T10:10:43.464Z,5.38
2022-09-05T10:10:44.036Z,5.28
2022-09-05T10:10:51.891Z,5.38
2022-09-05T10:12:01.285Z,4.95
2022-09-05T10:13:31.130Z,5.35
2022-09-05T10:14:51.266Z,5.75
2022-09-05T10:16:04.103Z,4.93
2022-09-05T10:17:14.918Z,5.32
2022-09-05T10:18:31.818Z,4.90
2022-09-05T10:21:32.435Z,4.93
2022-09-05T10:23:05.373Z,4.47
2022-09-05T10:24:25.100Z,4.90
2022-09-05T10:25:45.083Z,5.20
2022-09-05T10:27:07.965Z,5.10
2022-09-05T10:28:45.752Z,5.00
2022-09-05T10:30:19.864Z,4.93
2022-09-05T10:35:08.237Z,5.07
2022-09-05T10:35:21.027Z,5.10
2022-09-05T10:35:25.934Z,5.35
2022-09-05T10:36:32.216Z,5.30
2022-09-05T10:37:42.055Z,5.13
2022-09-05T10:38:49.845Z,5.47
2022-09-05T10:39:52.067Z,5.10
2022-09-05T10:41:20.266Z,5.15
2022-09-05T10:42:59.692Z,4.70
2022-09-05T10:44:04.546Z,5.20
2022-09-05T10:45:16.463Z,4.82
2022-09-05T10:46:49.821Z,4.78
2022-09-05T10:48:13.589Z,4.88
2022-09-05T10:49:16.688Z,5.18
2022-09-05T10:50:18.268Z,5.20
2022-09-05T10:51:29.787Z,5.47
2022-09-05T10:52:49.888Z,5.38
2022-09-05T10:54:28.503Z,5.07
2022-09-05T10:55:47.692Z,4.63
2022-09-05T10:57:07.146Z,4.70
2022-09-05T10:58:41.807Z,5.20
2022-09-05T11:02:21.957Z,5.40
2022-09-05T11:02:26.639Z,4.85
2022-09-05T11:03:22.480Z,5.00
2022-09-05T11:04:49.987Z,4.88
2022-09-05T11:06:09.030Z,5.15
2022-09-05T11:07:29.216Z,5.03
2022-09-05T11:08:35.613Z,4.95
2022-09-05T11:09:37.154Z,4.90
2022-09-05T11:11:28.695Z,4.60
2022-09-05T11:13:02.949Z,5.28
2022-09-05T11:14:27.141Z,4.88
2022-09-05T11:15:43.941Z,4.68
2022-09-05T11:17:22.642Z,5.32
2022-09-05T11:18:56.075Z,5.15
2022-09-05T11:20:34.937Z,4.63
2022-09-05T11:21:52.700Z,5.22
2022-09-05T11:23:27.968Z,4.70
2022-09-05T11:24:47.791Z,4.30
2022-09-05T11:26:37.726Z,4.30
2022-09-05T11:27:43.715Z,4.20
2022-09-05T11:29:01.142Z,4.20
2022-09-05T11:30:28.392Z,4.50
2022-09-05T11:32:27.047Z,4.40
2022-09-05T11:39:47.692Z,4.63
2022-09-05T11:39:53.198Z,4.55
2022-09-05T11:40:02.802Z,5.20
2022-09-05T11:40:24.568Z,5.10
2022-09-05T11:40:35.212Z,5.53
2022-09-05T11:41:43.387Z,5.70
2022-09-05T11:43:03.841Z,5.07
2022-09-05T11:44:27.411Z,4.85
2022-09-05T11:46:00.293Z,5.03
2022-09-05T11:47:37.054Z,4.40
2022-09-05T11:49:06.383Z,4.43
2022-09-05T11:50:14.153Z,4.68
2022-09-05T11:51:34.044Z,4.70
2022-09-05T11:53:03.940Z,4.88
2022-09-05T11:54:28.135Z,4.70
2022-09-05T11:55:47.978Z,4.40
2022-09-05T11:57:20.115Z,4.80
2022-09-05T11:59:08.161Z,4.38
2022-09-05T12:00:34.527Z,4.15
2022-09-05T12:02:10.968Z,4.40
2022-09-05T12:03:59.107Z,4.57
2022-09-05T12:05:50.766Z,4.88
2022-09-05T12:06:55.525Z,4.30
2022-09-05T12:08:06.419Z,4.63
2022-09-05T12:09:24.530Z,4.60
2022-09-05T12:10:47.091Z,4.30
2022-09-05T12:12:41.755Z,4.50
2022-09-05T12:13:54.874Z,5.05
2022-09-05T12:15:26.724Z,4.68
2022-09-05T12:16:52.692Z,5.55
2022-09-05T12:18:21.928Z,5.13
2022-09-05T12:19:44.943Z,4.88
2022-09-05T12:20:55.511Z,4.72
2022-09-05T12:22:28.490Z,5.07
2022-09-05T12:24:28.509Z,5.20
2022-09-05T12:27:36.140Z,5.18
2022-09-05T12:27:41.465Z,5.20
2022-09-05T12:29:27.633Z,4.57
2022-09-05T12:30:14.525Z,5.03
2022-09-05T12:32:36.708Z,4.75
2022-09-05T12:36:01.834Z,4.43
2022-09-05T12:36:07.912Z,4.90
2022-09-05T12:36:11.451Z,4.50
2022-09-05T12:40:28.688Z,4.75
2022-09-05T12:40:59.322Z,4.90
2022-09-05T12:41:38.352Z,4.82
2022-09-05T12:42:15.075Z,4.28
2022-09-05T12:44:37.493Z,4.40
2022-09-05T12:45:09.172Z,4.82
2022-09-05T12:46:24.315Z,4.75
2022-09-05T12:47:30.182Z,4.80
2022-09-05T12:49:07.035Z,4.75
2022-09-05T12:50:17.905Z,4.70
2022-09-05T12:51:46.247Z,4.70
2022-09-05T12:52:46.714Z,5.22
2022-09-05T12:53:55.424Z,4.90
2022-09-05T12:55:02.554Z,5.10
2022-09-05T12:59:00.841Z,4.90
2022-09-05T13:00:16.622Z,5.10
2022-09-05T13:02:59.210Z,4.80
2022-09-05T13:03:05.219Z,4.88
2022-09-05T13:03:14.058Z,4.88
2022-09-05T13:03:31.861Z,4.72
2022-09-05T13:04:52.530Z,4.95
2022-09-05T13:06:24.801Z,5.28
2022-09-05T13:07:52.926Z,4.88
2022-09-05T13:09:19.510Z,4.85
2022-09-05T13:13:30.569Z,4.82
2022-09-05T13:14:57.072Z,4.90
2022-09-05T13:14:58.993Z,4.32
2022-09-05T13:15:18.722Z,5.10
2022-09-05T13:16:28.816Z,4.22
2022-09-05T13:18:13.142Z,4.28
2022-09-05T13:19:51.365Z,4.32
2022-09-05T13:20:56.018Z,3.55
2022-09-05T13:22:00.153Z,3.70
2022-09-05T13:23:05.091Z,3.35
2022-09-05T13:24:12.938Z,3.53
2022-09-05T13:25:27.160Z,3.67
2022-09-05T13:26:36.244Z,3.70
2022-09-05T13:27:46.586Z,3.97
2022-09-05T13:29:10.325Z,3.70
2022-09-05T13:34:22.012Z,3.53
2022-09-05T13:37:55.107Z,3.35
2022-09-05T13:37:58.801Z,3.65
2022-09-05T13:38:14.752Z,3.53
2022-09-05T13:38:14.908Z,3.40
2022-09-05T13:39:01.677Z,3.70
2022-09-05T13:40:11.734Z,3.97
2022-09-05T13:41:31.379Z,4.40
2022-09-05T13:42:43.259Z,3.70
2022-09-05T13:43:44.985Z,4.20
2022-09-05T13:44:51.571Z,3.90
2022-09-05T13:46:10.849Z,4.00
2022-09-05T13:47:36.428Z,4.50
2022-09-05T13:49:29.339Z,4.78
2022-09-05T13:50:39.385Z,4.63
2022-09-05T13:51:44.249Z,4.43
2022-09-05T13:52:48.839Z,3.47
2022-09-05T13:54:14.450Z,3.95
2022-09-05T13:55:43.579Z,3.60
2022-09-05T13:56:55.631Z,3.78
2022-09-05T13:58:21.866Z,3.47
2022-09-05T13:59:25.132Z,3.22
2022-09-05T14:00:35.424Z,3.10
2022-09-05T14:02:26.732Z,3.33
2022-09-05T14:03:44.260Z,3.03
2022-09-05T14:05:20.821Z,3.28
2022-09-05T14:06:47.566Z,3.72
2022-09-05T14:08:25.733Z,3.72
2022-09-05T14:09:51.763Z,3.33
2022-09-05T14:11:11.576Z,3.45
2022-09-05T14:12:37.321Z,3.53
2022-09-05T14:13:58.541Z,3.50
2022-09-05T14:15:10.154Z,3.70
2022-09-05T14:16:21.189Z,3.45
2022-09-05T14:17:51.553Z,3.67
2022-09-05T14:19:14.428Z,3.53
2022-09-05T14:20:35.937Z,3.45
2022-09-05T14:21:41.239Z,3.60
2022-09-05T14:23:15.866Z,3.67
2022-09-05T14:24:28.187Z,3.85
2022-09-05T14:25:39.012Z,3.38
2022-09-05T14:27:12.770Z,3.83
2022-09-05T14:28:23.529Z,3.92
2022-09-05T14:29:33.151Z,3.50
2022-09-05T14:31:46.199Z,3.42
2022-09-05T14:37:36.101Z,3.47
2022-09-05T14:37:39.370Z,3.75
2022-09-05T14:37:40.805Z,3.95
2022-09-05T14:37:46.278Z,3.95
2022-09-05T14:39:17.328Z,4.20
2022-09-05T14:40:40.883Z,3.70
2022-09-05T14:42:07.423Z,3.75
2022-09-05T14:43:32.578Z,3.40
2022-09-05T14:45:01.857Z,3.63
2022-09-05T14:46:38.759Z,3.97
2022-09-05T14:48:02.486Z,3.85
2022-09-05T14:49:09.688Z,4.03
2022-09-05T14:50:40.037Z,3.90
2022-09-05T14:51:46.844Z,3.70
2022-09-05T14:56:33.344Z,4.40
2022-09-05T15:02:38.482Z,4.20
2022-09-05T15:02:54.897Z,4.00
2022-09-05T15:02:57.573Z,4.00
2022-09-05T15:02:58.244Z,3.97
2022-09-05T15:05:16.018Z,3.90
2022-09-05T15:06:21.303Z,4.03
2022-09-05T15:07:41.798Z,4.10
2022-09-05T15:12:15.505Z,3.92
2022-09-05T15:12:19.690Z,4.10
2022-09-05T15:12:21.163Z,4.40
2022-09-05T15:13:01.126Z,3.88
2022-09-05T15:14:07.621Z,4.18
2022-09-05T15:15:22.906Z,4.20
2022-09-05T15:16:25.714Z,4.35
2022-09-05T15:17:28.490Z,3.80
2022-09-05T15:18:45.358Z,4.45
2022-09-05T15:20:05.562Z,4.13
2022-09-05T15:21:34.660Z,3.80
2022-09-05T15:22:41.761Z,4.28
2022-09-05T15:23:46.167Z,4.03
2022-09-05T15:25:16.832Z,3.75
2022-09-05T15:26:25.819Z,4.60
2022-09-05T15:27:29.592Z,4.05
2022-09-05T15:28:38.255Z,4.35
2022-09-05T15:29:41.835Z,4.10
2022-09-05T15:30:55.741Z,4.15
2022-09-05T15:32:22.518Z,3.95
2022-09-05T15:33:28.378Z,4.40
2022-09-05T15:34:33.019Z,3.97
2022-09-05T15:35:43.445Z,4.05
2022-09-05T15:36:45.052Z,3.78
2022-09-05T15:37:48.022Z,4.10
2022-09-05T15:38:56.108Z,4.40
2022-09-05T15:40:23.800Z,4.43
2022-09-05T15:41:30.053Z,3.95
2022-09-05T15:42:34.870Z,4.50
2022-09-05T15:43:49.860Z,4.07
2022-09-05T15:45:09.789Z,3.88
2022-09-05T15:46:13.689Z,4.20
2022-09-05T15:47:24.381Z,4.13
2022-09-05T15:48:26.566Z,4.28
2022-09-05T15:49:50.144Z,3.97
2022-09-05T15:50:58.028Z,3.90
2022-09-05T15:52:17.626Z,4.35
2022-09-05T15:53:34.521Z,3.90
2022-09-05T15:54:54.979Z,3.90
2022-09-05T15:56:13.102Z,4.28
2022-09-05T15:57:37.975Z,4.22
2022-09-05T15:58:53.102Z,4.00
2022-09-05T16:00:07.059Z,3.88
2022-09-05T16:01:30.315Z,4.43
2022-09-05T16:02:42.909Z,4.18
2022-09-05T16:08:58.127Z,3.95
2022-09-05T16:10:35.690Z,4.05
2022-09-05T16:10:40.965Z,4.32
2022-09-05T16:10:47.280Z,3.78
2022-09-05T16:10:50.788Z,3.90
2022-09-05T16:12:59.951Z,4.00
2022-09-05T16:14:20.187Z,4.22
2022-09-05T16:18:10.320Z,3.80
2022-09-05T16:23:12.139Z,3.90
2022-09-05T16:23:16.907Z,4.22
2022-09-05T16:23:24.297Z,4.25
2022-09-05T16:23:31.435Z,3.53
2022-09-05T16:23:34.074Z,3.83
2022-09-05T16:24:59.393Z,3.75
2022-09-05T16:26:09.687Z,3.88
2022-09-05T16:27:17.710Z,3.90
2022-09-05T16:28:29.387Z,3.83
2022-09-05T16:29:38.555Z,3.70
2022-09-05T16:30:40.467Z,4.18
2022-09-05T16:31:51.692Z,4.00
2022-09-05T16:33:15.610Z,3.80
2022-09-05T16:35:00.466Z,3.90
2022-09-05T16:36:02.033Z,3.95
2022-09-05T16:37:14.162Z,3.75
2022-09-05T16:38:43.788Z,3.22
2022-09-05T16:40:06.928Z,3.90
2022-09-05T16:41:15.625Z,4.38
2022-09-05T16:42:47.484Z,4.10
2022-09-05T16:43:54.995Z,3.67
2022-09-05T16:45:15.264Z,3.90
2022-09-05T16:46:21.849Z,4.13
2022-09-05T16:47:27.425Z,3.72
2022-09-05T16:48:55.554Z,3.70
2022-09-05T16:50:25.314Z,4.13
2022-09-05T16:51:41.381Z,3.85
2022-09-05T16:52:53.447Z,4.20
2022-09-05T16:53:59.570Z,3.97
2022-09-05T16:55:20.920Z,4.43
2022-09-05T16:56:40.898Z,4.00
2022-09-05T16:58:01.923Z,4.30
2022-09-05T16:59:23.897Z,3.80
2022-09-05T17:00:31.038Z,3.97
2022-09-05T17:01:49.081Z,3.85
2022-09-05T17:03:28.406Z,4.05
2022-09-05T17:05:04.792Z,4.28
2022-09-05T17:06:26.137Z,4.15
2022-09-05T17:07:30.452Z,3.92
2022-09-05T17:08:35.570Z,4.07
2022-09-05T17:09:37.118Z,3.90
2022-09-05T17:10:50.773Z,4.03
2022-09-05T17:12:02.244Z,4.18
2022-09-05T17:13:05.963Z,3.90
2022-09-05T17:14:15.237Z,4.25
2022-09-05T17:15:22.570Z,3.78
2022-09-05T17:16:36.286Z,4.40
2022-09-05T17:18:20.699Z,4.18
2022-09-05T17:19:22.887Z,4.45
2022-09-05T17:20:28.412Z,3.95
2022-09-05T17:23:23.867Z,4.55
2022-09-05T17:27:08.330Z,4.22
2022-09-05T17:29:19.513Z,4.50
2022-09-05T17:29:26.945Z,4.38
2022-09-05T17:29:28.936Z,4.10
2022-09-05T17:29:38.280Z,4.45
2022-09-05T17:31:47.510Z,4.10
2022-09-05T17:32:03.695Z,4.43
2022-09-05T17:33:29.372Z,3.97
2022-09-05T17:35:16.754Z,3.83
2022-09-05T17:36:42.556Z,4.65
2022-09-05T17:37:53.483Z,4.75
2022-09-05T17:39:14.891Z,5.50
2022-09-05T17:40:54.863Z,5.38
2022-09-05T17:42:36.280Z,5.20
2022-09-05T17:43:40.280Z,4.80
2022-09-05T17:44:46.625Z,5.07
2022-09-05T17:46:12.046Z,4.53
2022-09-05T17:47:35.754Z,4.95
2022-09-05T17:49:05.392Z,5.40
2022-09-05T17:50:20.057Z,5.07
2022-09-05T17:51:27.220Z,4.72
2022-09-05T17:52:29.087Z,5.07
2022-09-05T17:53:33.395Z,4.88
2022-09-05T17:54:35.179Z,4.80
2022-09-05T17:55:51.288Z,4.90
2022-09-05T17:56:53.449Z,4.78
2022-09-05T17:58:22.365Z,5.30
2022-09-05T17:59:28.350Z,4.80
2022-09-05T18:00:48.849Z,4.95
2022-09-05T18:02:03.301Z,4.90
2022-09-05T18:03:04.980Z,4.22
2022-09-05T18:04:16.252Z,5.28
2022-09-05T18:05:57.039Z,4.30
2022-09-05T18:07:00.327Z,4.55
2022-09-05T18:08:02.628Z,4.25
2022-09-05T18:09:09.022Z,4.45
2022-09-05T18:10:15.395Z,4.65
2022-09-05T18:11:28.748Z,4.80
2022-09-05T18:14:10.774Z,4.72
2022-09-05T18:15:27.332Z,4.63
2022-09-05T18:16:38.635Z,4.50
2022-09-05T18:17:48.522Z,3.83
2022-09-05T18:19:28.052Z,4.10
2022-09-05T18:21:21.921Z,4.47
2022-09-05T18:22:27.586Z,4.32
2022-09-05T18:23:43.665Z,4.15